x

West Sea Otter (46204) Wave Buoy

3:00am - Sun 28th Dec 2014 All times are PST. -8 hours from GMT.

  • Sig Wave height 11.5ft
  • Peak Period 13s
  • Wind
    25mph, 29mph gusts
  • Sea Temp 51°f
  • Air Temp 46°f
  • Sea Pressure 1024.7mb
  • West Sea Otter
  • West Sea Otter

More Historic Weather Station data

Upgrade to MSW Pro to gain access to the past 30 days of data for over 8000 Wavebouys and Weather Stations around the globe.

Join Pro

Comparision Forecast

View Surf forecast
   
Sun 12/28 3:00am 11.5ft 13s 25 29 mph 1024.7mb 51f 46f
2:00am 11.5ft 8s 25 31 mph 1024.1mb 51f 46f
1:00am 11.5ft 12s 27 31 mph 1023.6mb 51f 46f
12:00am 13ft 8s 29 34 mph 1023.1mb 51f 46f
Sat 12/27 11:00pm 14ft 12s 29 36 mph 1022.7mb 51f 46f
10:00pm 14ft 9s 31 40 mph 1022.2mb 51f 47f
9:00pm 15ft 10s 29 36 mph 1021.9mb 51f 47f
8:00pm 16.5ft 10s 31 38 mph 1021.4mb 51f 47f
7:00pm 17ft 9s 31 38 mph 1021.1mb 51f 47f
5:00pm 16.5ft 8s 34 43 mph 1019.7mb 52f 47f
4:00pm 15.5ft 8s 31 40 mph 1019.1mb 52f 47f
3:00pm 14ft 11s 34 43 mph 1018.4mb 52f 47f
2:00pm 13ft 14s 29 38 mph 1017.9mb 52f 47f
1:00pm 11.5ft 11s 29 38 mph 1017.1mb 51f 47f
12:00pm  -   -  34
mph
1016.3mb - 47f
11:00am 12ft 10s 29 38 mph 1015.7mb 51f 48f
10:00am 12.5ft 11s 31 38 mph 1014.4mb 51f 47f
9:00am 12ft 9s 27 34 mph 1013.2mb 51f 47f
8:00am 12ft 8s 29 36 mph 1012.2mb 51f 47f
7:00am 14.5ft 9s 27 34 mph 1013mb 51f 46f
6:00am 13.5ft 14s 31 38 mph 1013.7mb 51f 48f
5:00am 12.5ft 14s 29 36 mph 1014.6mb 50f 48f
4:00am 11.5ft 14s 29 36 mph 1015.4mb 50f 48f
3:00am 10ft 14s 27 34 mph 1015.7mb 50f 49f
2:00am 9.5ft 13s 27 34 mph 1016mb 50f 48f
1:00am 9ft 13s 27 34 mph 1017mb 50f 48f
12:00am 8.5ft 13s 27 34 mph 1018.3mb 50f 49f
Fri 12/26 11:00pm 8ft 14s 25 31 mph 1019.9mb 50f 49f
10:00pm 8ft 14s 22 27 mph 1020.9mb 50f 49f
9:00pm 8ft 14s 20 25 mph 1021.3mb 50f 48f
8:00pm 8ft 14s 13 18 mph 1021.8mb 50f 48f
7:00pm 8ft 14s 13 16 mph 1022.5mb 50f 48f
6:00pm 7.5ft 14s 11 16 mph 1022.8mb 50f 48f
5:00pm 7.5ft 14s 16 22 mph 1022.9mb 50f 48f
4:00pm 7ft 14s 13 16 mph 1023.7mb 50f 48f
3:00pm 7ft 14s 18 20 mph 1023.8mb 50f 47f
2:00pm 7ft 14s 16 20 mph 1024.1mb 50f 47f
1:00pm 7ft 11s 16 20 mph 1024.6mb 50f 47f
12:00pm 7.5ft 13s 16 18 mph 1025mb 50f 47f
11:00am 7ft 11s 13 18 mph 1025.5mb 50f 47f
10:00am 7ft 11s 11 13 mph 1026.1mb 50f 47f
9:00am 7ft 14s 11 13 mph 1025.7mb 50f 48f
8:00am 8ft 11s 4 7 mph 1025.1mb 50f 48f
7:00am 7ft 11s 2 4 mph 1025.4mb 50f 48f
6:00am 7ft 11s 4
mph
1025.2mb 50f 48f
5:00am 6.5ft 11s 2 4 mph 1025mb 50f 48f
4:00am 7ft 11s 4 7 mph 1024.8mb 50f 48f
3:00am 6.5ft 10s 7 9 mph 1025mb 50f 48f
2:00am 7ft 11s 4
mph
1024.4mb 50f 49f
1:00am 7ft 9s 4
mph
1024.2mb 50f 48f
12:00am 7.5ft 9s 11 13 mph 1024.1mb 49f 48f
Thu 12/25 11:00pm 7.5ft 10s 2 4 mph 1024mb 49f 49f
10:00pm 7.5ft 11s 2 4 mph 1023.7mb 49f 49f
9:00pm 6ft 12s 4 7 mph 1023.5mb 49f 49f
8:00pm 6ft 11s 7 9 mph 1022.8mb 49f 48f
7:00pm 6ft 11s 9 11 mph 1022.6mb 49f 49f
6:00pm 5.5ft 13s 11 13 mph 1022.2mb 49f 49f
5:00pm 6ft 12s 9 18 mph 1021.8mb 49f 49f
4:00pm 6ft 10s 11 13 mph 1021.4mb 49f 49f
3:00pm 5.5ft 8s 11 16 mph 1020.7mb 50f 49f
2:00pm 6ft 10s 11 13 mph 1020.2mb 49f 50f
1:00pm 6ft 9s 11 20 mph 1020.4mb 49f 47f
12:00pm 6.5ft 10s 18 22 mph 1020.5mb 49f 46f
11:00am 6ft 9s 20 25 mph 1020.5mb 49f 46f
10:00am 6ft 10s 18 20 mph 1020.5mb 49f 46f
9:00am 6.5ft 11s 13 16 mph 1020.2mb 49f 45f
8:00am 6.5ft 11s 11 16 mph 1020mb 49f 46f
7:00am 7ft 11s 7 9 mph 1019.8mb 49f 47f
6:00am 7.5ft 12s 7 9 mph 1020mb 49f 46f
5:00am 8ft 11s 4 9 mph 1019.9mb 49f 46f
4:00am 8.5ft 11s 9 13 mph 1019.8mb 49f 47f
3:00am 8.5ft 10s 13 16 mph 1019.8mb 49f 47f
2:00am 9ft 11s 13 16 mph 1019.7mb 49f 47f
1:00am 10ft 10s 13 18 mph 1019.5mb 49f 47f
12:00am 11ft 11s 16 20 mph 1019.5mb 49f 47f
Wed 12/24 11:00pm 11ft 10s 13 25 mph 1019.7mb 49f 46f
10:00pm 11.5ft 10s 16 20 mph 1019.3mb 49f 47f
9:00pm 11.5ft 12s 9 11 mph 1019mb 49f 46f
8:00pm 11.5ft 11s 13 22 mph 1018.7mb 49f 47f
7:00pm 12.5ft 12s 16 22 mph 1018.5mb 49f 48f
6:00pm 12ft 10s 18 25 mph 1018.4mb 49f 47f
5:00pm 13ft 8s 20 25 mph 1017.4mb 49f 47f
4:00pm  -   -  27
mph
- - 46f
3:00pm 14ft 12s 22 31 mph 1015.7mb 50f 48f
2:00pm 14ft 11s 22 27 mph 1015.2mb 50f 49f
1:00pm 14ft 13s 20 27 mph 1014.7mb 50f 49f